Terminal Aerodrome Forecast
Issued by NWS

Current Version | Previous Version | Graphics & Text | Print | Product List | Glossary On
Versions: 1 2 3 4 5 6 7 8 9 10 11 12 13 14 15 16 17 18 19 20 21 22 23 24 25
000
FTUS41 KILN 120906 AAA
TAFLUK
TAF AMD
KLUK 120906Z 1209/1306 30014G22KT P6SM OVC018
     FM121300 30015G25KT P6SM OVC025
      TEMPO 1213/1215 3SM -SHSN
     FM121700 31015G25KT P6SM BKN045
     FM122300 30012KT P6SM SCT045
     FM130300 28007KT P6SM SKC=

USA.gov is the U.S. government's official web portal to all federal, state and local government web resources and services.